Time;durP1;ratioP1;P1;durP2;ratioP2;P2;SDS_P1;SDS_P2;PMS_P1;PMS_P2;Temp;Humidity;BMP_temperature;BMP_pressure;BME280_temperature;BME280_humidity;BME280_pressure;Samples;Min_cycle;Max_cycle;Signal;HPM_P1;HPM_P2
2022/10/23 00:00:37;;;;;;;6.47;4.28;;;15.10;99.90;;;;;;5097096;28;20184;-65
2022/10/23 00:03:03;;;;;;;9.60;4.10;;;15.00;99.90;;;;;;5102699;28;20180;-66
2022/10/23 00:05:29;;;;;;;5.57;3.85;;;15.00;99.90;;;;;;5096660;28;20234;-67
2022/10/23 00:07:57;;;;;;;8.73;5.10;;;15.10;99.90;;;;;;5105245;28;20181;-67
2022/10/23 00:10:25;;;;;;;6.38;4.22;;;15.10;99.90;;;;;;5096632;28;20253;-67
2022/10/23 00:12:51;;;;;;;7.35;4.57;;;15.10;99.90;;;;;;5105218;28;20188;-67
2022/10/23 00:15:19;;;;;;;7.82;4.32;;;15.20;99.90;;;;;;5097536;28;20180;-67
2022/10/23 00:17:44;;;;;;;7.18;4.22;;;15.20;99.90;;;;;;5094034;28;20208;-67
2022/10/23 00:20:11;;;;;;;8.98;4.93;;;15.10;99.90;;;;;;5100595;28;20191;-65
2022/10/23 00:22:38;;;;;;;10.23;5.28;;;15.10;99.90;;;;;;5099599;28;20191;-66
2022/10/23 00:25:05;;;;;;;5.28;4.47;;;15.10;99.90;;;;;;5097289;28;20173;-66
2022/10/23 00:27:30;;;;;;;6.05;4.78;;;15.10;99.90;;;;;;5098869;28;20687;-66
2022/10/23 00:29:56;;;;;;;9.13;5.97;;;15.00;99.90;;;;;;5097098;28;20186;-66
2022/10/23 00:32:22;;;;;;;7.30;4.60;;;14.90;99.90;;;;;;5103704;28;20177;-66
2022/10/23 00:34:47;;;;;;;4.75;4.10;;;14.90;99.90;;;;;;5105589;28;20184;-66
2022/10/23 00:37:13;;;;;;;7.60;3.85;;;15.00;99.90;;;;;;5101433;28;20208;-66
2022/10/23 00:39:39;;;;;;;7.57;5.00;;;15.00;99.90;;;;;;5097930;28;20184;-67
2022/10/23 00:42:04;;;;;;;4.15;3.63;;;14.90;99.90;;;;;;5104613;28;20264;-66
2022/10/23 00:44:30;;;;;;;6.80;4.22;;;14.70;99.90;;;;;;5096281;28;20191;-67
2022/10/23 00:46:57;;;;;;;6.65;4.85;;;14.70;99.90;;;;;;5106225;28;20172;-66
2022/10/23 00:49:24;;;;;;;5.43;4.38;;;14.50;99.90;;;;;;5090988;28;20594;-68
2022/10/23 00:51:52;;;;;;;5.20;4.25;;;14.40;99.90;;;;;;5097180;28;20181;-67
2022/10/23 00:54:21;;;;;;;8.88;4.53;;;14.40;99.90;;;;;;5095721;28;20271;-67
2022/10/23 00:56:48;;;;;;;4.75;4.13;;;14.40;99.90;;;;;;5098447;28;20178;-66
2022/10/23 00:59:14;;;;;;;4.68;4.28;;;14.40;99.90;;;;;;5094236;28;20585;-66
2022/10/23 01:01:40;;;;;;;4.72;3.38;;;14.40;99.90;;;;;;5094041;28;20177;-67
2022/10/23 01:04:07;;;;;;;7.72;5.03;;;14.40;99.90;;;;;;5093756;28;20188;-67
2022/10/23 01:06:44;;;;;;;7.10;4.38;;;14.40;99.90;;;;;;5094660;28;20171;-66
2022/10/23 01:09:10;;;;;;;8.10;3.97;;;14.40;99.90;;;;;;5093162;28;20652;-65
2022/10/23 01:11:38;;;;;;;9.25;4.00;;;14.30;99.90;;;;;;5103476;28;20284;-65
2022/10/23 01:14:22;;;;;;;6.25;3.67;;;14.30;99.90;;;;;;5106472;28;20217;-66
2022/10/23 01:17:07;;;;;;;3.58;3.22;;;14.40;99.90;;;;;;5097571;28;20164;-66
2022/10/23 01:19:42;;;;;;;4.88;4.40;;;14.50;99.90;;;;;;5098781;28;20185;-66
2022/10/23 01:22:14;;;;;;;5.20;4.32;;;14.50;99.90;;;;;;5093557;28;20168;-66
2022/10/23 01:24:49;;;;;;;5.47;3.63;;;14.50;99.90;;;;;;5093831;28;20181;-66
2022/10/23 01:27:26;;;;;;;5.57;4.40;;;14.60;99.90;;;;;;5105317;28;20167;-66
2022/10/23 01:30:02;;;;;;;4.28;3.50;;;14.60;99.90;;;;;;5091570;28;20175;-66
2022/10/23 01:32:52;;;;;;;4.38;3.90;;;14.60;99.90;;;;;;5092786;28;20178;-67
2022/10/23 01:35:23;;;;;;;5.25;3.47;;;14.60;99.90;;;;;;5096163;28;20641;-66
2022/10/23 01:37:59;;;;;;;5.32;3.33;;;14.60;99.90;;;;;;5098319;28;20290;-66
2022/10/23 01:40:36;;;;;;;3.72;3.38;;;14.60;99.90;;;;;;5102729;28;20187;-66
2022/10/23 01:43:11;;;;;;;4.00;3.60;;;14.60;99.90;;;;;;5092466;28;20680;-65
2022/10/23 01:45:42;;;;;;;4.82;3.72;;;14.70;99.90;;;;;;5101248;28;20178;-66
2022/10/23 01:48:12;;;;;;;6.50;4.35;;;14.70;99.90;;;;;;5098271;28;20633;-66
2022/10/23 01:50:40;;;;;;;5.70;4.20;;;14.90;99.90;;;;;;5110643;28;20176;-66
2022/10/23 01:53:06;;;;;;;9.52;4.07;;;14.80;99.90;;;;;;5098091;28;20189;-66
2022/10/23 01:55:33;;;;;;;4.55;3.33;;;14.70;99.90;;;;;;5091649;28;20275;-66
2022/10/23 01:58:01;;;;;;;3.50;3.20;;;14.60;99.90;;;;;;5093090;28;20707;-66
2022/10/23 02:00:27;;;;;;;8.13;4.78;;;14.50;99.90;;;;;;5091181;28;20648;-66
2022/10/23 02:02:54;;;;;;;5.00;3.28;;;14.60;99.90;;;;;;5107016;28;20189;-66
2022/10/23 02:05:28;;;;;;;6.40;3.30;;;14.50;99.90;;;;;;5093705;28;20184;-67
2022/10/23 02:07:54;;;;;;;3.55;3.25;;;14.50;99.90;;;;;;5100296;28;20177;-66
2022/10/23 02:10:21;;;;;;;4.60;3.97;;;14.70;99.90;;;;;;5109365;27;20203;-65
2022/10/23 02:13:11;;;;;;;7.25;4.28;;;14.70;99.90;;;;;;5112327;28;20302;-66
2022/10/23 02:15:45;;;;;;;6.47;3.35;;;14.80;99.90;;;;;;5108585;28;21978;-66
2022/10/23 02:18:43;;;;;;;3.40;3.10;;;14.80;99.90;;;;;;5093590;28;20204;-66
2022/10/23 02:21:17;;;;;;;7.85;3.13;;;14.80;99.90;;;;;;5100506;28;20559;-66
2022/10/23 02:24:12;;;;;;;4.93;4.00;;;14.80;99.90;;;;;;5100716;28;20177;-66
2022/10/23 02:26:48;;;;;;;3.65;3.35;;;14.90;99.90;;;;;;5096371;28;20263;-65
2022/10/23 02:29:20;;;;;;;6.15;3.75;;;14.90;99.90;;;;;;5106997;28;20176;-66
2022/10/23 02:31:45;;;;;;;5.78;4.10;;;14.70;99.90;;;;;;5094214;28;20365;-66
2022/10/23 02:34:11;;;;;;;4.90;3.53;;;14.70;99.90;;;;;;5093628;28;20662;-66
2022/10/23 02:36:37;;;;;;;5.93;4.13;;;14.80;99.90;;;;;;5099240;28;20175;-66
2022/10/23 02:39:04;;;;;;;3.85;3.42;;;14.80;99.90;;;;;;5096992;28;20219;-66
2022/10/23 02:41:50;;;;;;;8.75;4.28;;;14.90;99.90;;;;;;5097681;28;20527;-66
2022/10/23 02:44:40;;;;;;;6.22;4.10;;;14.90;99.90;;;;;;5097225;28;20176;-68
2022/10/23 02:47:31;;;;;;;5.00;3.30;;;14.80;99.90;;;;;;5108641;28;20208;-66
2022/10/23 02:50:26;;;;;;;7.95;3.63;;;14.70;99.90;;;;;;5102502;28;20181;-66
2022/10/23 02:53:00;;;;;;;5.28;3.55;;;14.60;99.90;;;;;;5093660;27;20195;-66
2022/10/23 02:55:52;;;;;;;4.05;3.65;;;14.60;99.90;;;;;;5112811;28;20183;-66
2022/10/23 02:58:55;;;;;;;3.92;3.13;;;14.60;99.90;;;;;;5078995;28;20709;-67
2022/10/23 03:01:26;;;;;;;6.07;3.67;;;14.60;99.90;;;;;;5094621;28;20181;-66
2022/10/23 03:03:55;;;;;;;5.65;3.50;;;14.60;99.90;;;;;;5097952;28;20544;-67
2022/10/23 03:06:21;;;;;;;4.57;3.88;;;14.60;99.90;;;;;;5107142;28;20181;-68
2022/10/23 03:08:58;;;;;;;2.85;2.65;;;14.60;99.90;;;;;;5102696;28;20185;-69
2022/10/23 03:11:24;;;;;;;3.88;3.17;;;14.60;99.90;;;;;;5095181;28;20640;-66
2022/10/23 03:13:50;;;;;;;4.00;3.60;;;14.60;99.90;;;;;;5108568;28;20202;-66
2022/10/23 03:16:15;;;;;;;6.22;3.60;;;14.60;99.90;;;;;;5111421;28;20628;-66
2022/10/23 03:18:41;;;;;;;6.35;3.95;;;14.50;99.90;;;;;;5095305;28;20309;-66
2022/10/23 03:21:07;;;;;;;6.55;4.38;;;14.50;99.90;;;;;;5079619;28;20187;-67
2022/10/23 03:23:33;;;;;;;4.30;3.70;;;14.40;99.90;;;;;;5107536;28;20172;-67
2022/10/23 03:25:59;;;;;;;6.88;4.05;;;14.30;99.90;;;;;;5101116;28;20177;-66
2022/10/23 03:28:25;;;;;;;2.92;2.72;;;14.30;99.90;;;;;;5095912;28;20238;-66
2022/10/23 03:30:51;;;;;;;4.15;3.67;;;14.30;99.90;;;;;;5107828;28;20555;-65
2022/10/23 03:33:17;;;;;;;4.55;3.47;;;14.30;99.90;;;;;;5103553;28;20181;-65
2022/10/23 03:35:43;;;;;;;4.10;3.70;;;14.20;99.90;;;;;;5105050;28;20224;-65
2022/10/23 03:38:08;;;;;;;4.63;3.20;;;14.20;99.90;;;;;;5102713;28;20224;-66
2022/10/23 03:40:34;;;;;;;6.55;3.40;;;14.30;99.90;;;;;;5107922;28;20272;-65
2022/10/23 03:43:00;;;;;;;7.47;3.30;;;14.50;99.90;;;;;;5110729;28;20196;-66
2022/10/23 03:45:25;;;;;;;5.20;3.53;;;14.60;99.90;;;;;;5104697;28;20229;-66
2022/10/23 03:47:51;;;;;;;3.55;3.25;;;14.60;99.90;;;;;;5095367;28;20188;-66
2022/10/23 03:50:18;;;;;;;3.55;3.13;;;14.70;99.90;;;;;;5101711;28;20173;-65
2022/10/23 03:52:44;;;;;;;4.68;3.25;;;14.80;99.90;;;;;;5094638;28;20184;-65
2022/10/23 03:55:10;;;;;;;4.65;2.80;;;14.80;99.90;;;;;;5093165;28;20192;-65
2022/10/23 03:57:35;;;;;;;3.40;2.90;;;14.90;99.90;;;;;;5104660;28;20214;-65
2022/10/23 04:00:02;;;;;;;4.75;2.63;;;14.90;99.90;;;;;;5101475;28;20189;-66
2022/10/23 04:02:28;;;;;;;3.60;2.83;;;15.00;99.90;;;;;;5103419;28;20255;-66
2022/10/23 04:04:54;;;;;;;4.25;2.80;;;14.90;99.90;;;;;;5102718;28;20185;-66
2022/10/23 04:07:20;;;;;;;3.25;2.97;;;14.90;99.90;;;;;;5103011;28;20667;-66
2022/10/23 04:09:45;;;;;;;3.75;3.00;;;15.00;99.90;;;;;;5094342;28;20208;-65
2022/10/23 04:12:11;;;;;;;4.80;2.63;;;14.90;99.90;;;;;;5094178;28;20196;-67
2022/10/23 04:14:37;;;;;;;3.00;2.53;;;14.80;99.90;;;;;;5099191;27;20184;-66
2022/10/23 04:17:02;;;;;;;4.28;3.20;;;14.80;99.90;;;;;;5099517;28;20180;-66
2022/10/23 04:19:28;;;;;;;6.75;3.50;;;14.90;99.90;;;;;;5107804;28;20188;-67
2022/10/23 04:21:54;;;;;;;3.10;2.53;;;14.90;99.90;;;;;;5105270;28;20652;-67
2022/10/23 04:24:19;;;;;;;4.55;2.47;;;14.80;99.90;;;;;;5092925;28;20583;-66
2022/10/23 04:26:45;;;;;;;4.00;2.88;;;14.80;99.90;;;;;;5101037;28;20186;-66
2022/10/23 04:29:11;;;;;;;3.10;2.85;;;14.70;99.90;;;;;;5095639;28;20284;-66
2022/10/23 04:31:37;;;;;;;4.32;2.72;;;14.80;99.90;;;;;;5101923;28;20181;-66
2022/10/23 04:34:02;;;;;;;3.25;2.42;;;14.80;99.90;;;;;;5104458;28;20259;-66
2022/10/23 04:36:28;;;;;;;2.83;2.60;;;14.80;99.90;;;;;;5093348;28;20244;-66
2022/10/23 04:38:54;;;;;;;3.15;2.83;;;14.80;99.90;;;;;;5092300;28;20215;-65
2022/10/23 04:41:19;;;;;;;3.55;2.40;;;14.80;99.90;;;;;;5094957;28;20184;-66
2022/10/23 04:43:45;;;;;;;3.13;2.35;;;14.80;99.90;;;;;;5092805;28;20188;-65
2022/10/23 04:46:11;;;;;;;5.97;2.97;;;14.90;99.90;;;;;;5094233;28;20187;-65
2022/10/23 04:48:36;;;;;;;4.15;3.05;;;14.90;99.90;;;;;;5102769;28;20255;-66
2022/10/23 04:51:05;;;;;;;3.53;3.22;;;14.80;99.90;;;;;;5103755;28;20324;-66
2022/10/23 04:53:31;;;;;;;2.35;2.10;;;14.90;99.90;;;;;;5107259;28;20228;-66
2022/10/23 04:55:58;;;;;;;4.70;2.85;;;14.90;99.90;;;;;;5103431;28;20183;-66
2022/10/23 04:58:25;;;;;;;3.05;2.47;;;15.00;99.90;;;;;;5101190;28;20223;-67
2022/10/23 05:00:51;;;;;;;4.57;2.92;;;15.00;99.90;;;;;;5093526;28;20260;-68
2022/10/23 05:03:18;;;;;;;6.47;2.67;;;15.10;99.90;;;;;;5091650;28;20239;-66
2022/10/23 05:05:44;;;;;;;3.45;2.25;;;15.00;99.90;;;;;;5098611;28;20694;-66
2022/10/23 05:08:10;;;;;;;2.65;2.42;;;15.00;99.90;;;;;;5095023;28;20198;-67
2022/10/23 05:10:36;;;;;;;3.90;3.08;;;14.90;99.90;;;;;;5094373;28;20671;-66
2022/10/23 05:13:02;;;;;;;2.63;2.42;;;14.90;99.90;;;;;;5102352;28;20264;-66
2022/10/23 05:15:28;;;;;;;4.90;2.97;;;14.90;99.90;;;;;;5093029;28;20629;-66
2022/10/23 05:17:58;;;;;;;2.60;2.08;;;14.90;99.90;;;;;;5096285;28;20261;-69
2022/10/23 05:20:28;;;;;;;3.30;3.00;;;15.00;99.90;;;;;;5097644;28;20222;-67
2022/10/23 05:22:55;;;;;;;2.80;2.60;;;15.00;99.90;;;;;;5101659;28;20183;-67
2022/10/23 05:25:21;;;;;;;3.38;2.13;;;15.10;99.90;;;;;;5093513;28;20208;-67
2022/10/23 05:27:47;;;;;;;3.83;3.03;;;15.10;99.90;;;;;;5092974;28;20220;-67
2022/10/23 05:30:12;;;;;;;3.20;2.90;;;15.10;99.90;;;;;;5092266;28;20177;-67
2022/10/23 05:32:38;;;;;;;2.58;2.30;;;15.10;99.90;;;;;;5094650;28;20193;-67
2022/10/23 05:35:12;;;;;;;3.67;2.17;;;15.10;99.90;;;;;;5102931;28;20208;-67
2022/10/23 05:37:40;;;;;;;3.35;2.53;;;15.00;99.90;;;;;;5092360;28;20207;-67
2022/10/23 05:40:06;;;;;;;2.88;2.67;;;15.00;99.90;;;;;;5106790;28;20240;-66
2022/10/23 05:42:32;;;;;;;2.50;2.30;;;15.10;99.90;;;;;;5105865;28;20184;-66
2022/10/23 05:45:01;;;;;;;2.90;2.65;;;15.10;99.90;;;;;;5103550;28;20195;-66
2022/10/23 05:47:26;;;;;;;3.60;2.97;;;15.10;99.90;;;;;;5094211;28;20313;-67
2022/10/23 05:49:52;;;;;;;4.47;2.60;;;15.20;99.90;;;;;;5094509;28;20657;-66
2022/10/23 05:52:19;;;;;;;2.72;2.53;;;15.20;99.90;;;;;;5109914;28;20187;-67
2022/10/23 05:54:45;;;;;;;2.95;2.50;;;15.20;99.90;;;;;;5104580;28;20652;-66
2022/10/23 05:57:10;;;;;;;3.10;2.63;;;15.20;99.90;;;;;;5090540;28;20185;-66
2022/10/23 05:59:36;;;;;;;2.70;2.42;;;15.20;99.90;;;;;;5095100;28;20181;-66
2022/10/23 06:02:01;;;;;;;4.40;2.28;;;15.20;99.90;;;;;;5093348;28;20179;-66
2022/10/23 06:04:27;;;;;;;2.75;2.13;;;15.30;99.90;;;;;;5093027;28;20253;-66
2022/10/23 06:06:53;;;;;;;4.43;2.80;;;15.30;99.90;;;;;;5091140;28;20539;-67
2022/10/23 06:09:18;;;;;;;2.60;2.40;;;15.20;99.90;;;;;;5102682;28;20184;-67
2022/10/23 06:11:44;;;;;;;2.42;2.22;;;15.20;99.90;;;;;;5092614;28;20196;-66
2022/10/23 06:14:10;;;;;;;3.35;2.15;;;15.10;99.90;;;;;;5098770;28;20233;-66
2022/10/23 06:16:35;;;;;;;6.80;2.58;;;15.10;99.90;;;;;;5097751;28;20188;-66
2022/10/23 06:19:01;;;;;;;2.45;2.17;;;15.10;99.90;;;;;;5123703;27;20218;-68
2022/10/23 06:21:27;;;;;;;4.93;2.95;;;15.10;99.90;;;;;;5108350;28;20180;-67
2022/10/23 06:23:54;;;;;;;5.35;3.15;;;15.10;99.90;;;;;;5113932;28;20184;-67
2022/10/23 06:26:20;;;;;;;5.97;2.35;;;15.00;99.90;;;;;;5099663;28;20660;-67
2022/10/23 06:28:46;;;;;;;1.98;1.73;;;15.10;99.90;;;;;;5096779;28;20189;-65
2022/10/23 06:31:14;;;;;;;4.20;2.30;;;15.20;99.90;;;;;;5094432;28;20188;-65
2022/10/23 06:33:40;;;;;;;3.15;2.45;;;15.20;99.90;;;;;;5102840;28;20266;-66
2022/10/23 06:36:09;;;;;;;3.92;2.65;;;15.20;99.90;;;;;;5103708;28;20652;-65
2022/10/23 06:38:38;;;;;;;2.03;1.92;;;15.20;99.90;;;;;;5095858;28;20685;-66
2022/10/23 06:41:07;;;;;;;4.43;2.38;;;15.10;99.90;;;;;;5095704;28;20612;-66
2022/10/23 06:43:33;;;;;;;2.08;1.98;;;15.10;99.90;;;;;;5094939;28;20185;-67
2022/10/23 06:46:03;;;;;;;3.85;2.83;;;15.20;99.90;;;;;;5107948;28;20195;-67
2022/10/23 06:48:30;;;;;;;5.00;2.08;;;15.20;99.90;;;;;;5099101;28;20188;-67
2022/10/23 06:50:55;;;;;;;3.15;2.80;;;15.20;99.90;;;;;;5108300;28;20659;-67
2022/10/23 06:53:23;;;;;;;2.90;2.58;;;15.20;99.90;;;;;;5109349;28;20184;-67
2022/10/23 06:55:57;;;;;;;2.47;2.28;;;15.40;99.90;;;;;;5095472;28;20184;-67
2022/10/23 06:58:24;;;;;;;3.17;2.55;;;15.50;99.90;;;;;;5098501;28;20292;-67
2022/10/23 07:00:50;;;;;;;4.28;2.72;;;15.40;99.90;;;;;;5112536;28;20187;-67
2022/10/23 07:03:16;;;;;;;4.57;3.20;;;15.40;99.90;;;;;;5103219;28;20184;-66
2022/10/23 07:05:43;;;;;;;3.60;3.08;;;15.60;99.90;;;;;;5077340;28;20559;-66
2022/10/23 07:08:10;;;;;;;5.85;3.20;;;15.70;99.90;;;;;;5099654;28;20192;-66
2022/10/23 07:10:35;;;;;;;4.05;2.60;;;15.70;99.90;;;;;;5098385;28;20197;-66
2022/10/23 07:13:02;;;;;;;3.53;2.63;;;15.70;99.90;;;;;;5101484;28;20538;-68
2022/10/23 07:15:28;;;;;;;5.40;2.95;;;15.80;99.90;;;;;;5102275;28;20196;-67
2022/10/23 07:17:54;;;;;;;6.72;2.42;;;15.80;99.90;;;;;;5108499;28;20669;-67
2022/10/23 07:20:20;;;;;;;2.05;1.95;;;15.80;99.90;;;;;;5095777;28;20188;-67
2022/10/23 07:22:54;;;;;;;4.10;2.88;;;15.90;99.90;;;;;;5112754;27;20192;-66
2022/10/23 07:25:21;;;;;;;2.83;2.42;;;16.00;99.90;;;;;;5103363;28;20176;-67
2022/10/23 07:27:47;;;;;;;3.95;3.00;;;15.90;99.90;;;;;;5112144;28;20274;-67
2022/10/23 07:30:13;;;;;;;3.08;2.17;;;15.90;99.90;;;;;;5094446;28;20267;-68
2022/10/23 07:32:38;;;;;;;2.35;2.10;;;15.90;99.90;;;;;;5107383;28;20184;-67
2022/10/23 07:35:05;;;;;;;2.95;2.40;;;15.90;99.90;;;;;;5100119;28;20191;-68
2022/10/23 07:37:30;;;;;;;2.47;2.28;;;16.00;99.90;;;;;;5103344;28;20203;-68
2022/10/23 07:39:56;;;;;;;3.83;2.60;;;16.00;99.90;;;;;;5110119;27;20184;-68
2022/10/23 07:42:22;;;;;;;3.92;2.40;;;16.10;99.90;;;;;;5102140;28;20567;-69
2022/10/23 07:44:50;;;;;;;3.42;2.15;;;16.00;99.90;;;;;;5095046;28;20192;-69
2022/10/23 07:47:16;;;;;;;3.50;2.28;;;16.10;99.90;;;;;;5093599;28;20227;-68
2022/10/23 07:49:41;;;;;;;5.65;2.22;;;16.10;99.90;;;;;;5110590;28;20603;-69
2022/10/23 07:52:07;;;;;;;3.05;2.10;;;16.10;99.90;;;;;;5100708;28;20180;-69
2022/10/23 07:54:33;;;;;;;3.03;2.53;;;16.20;99.90;;;;;;5095008;28;20180;-68
2022/10/23 07:56:59;;;;;;;3.33;2.72;;;16.30;99.90;;;;;;5098885;28;20199;-67
2022/10/23 07:59:25;;;;;;;3.97;3.58;;;16.50;99.90;;;;;;5094926;28;20200;-67
2022/10/23 08:01:53;;;;;;;3.72;3.40;;;16.80;99.90;;;;;;5093800;28;20181;-68
2022/10/23 08:04:19;;;;;;;7.38;3.15;;;16.70;99.90;;;;;;5100385;28;20603;-68
2022/10/23 08:06:45;;;;;;;3.33;3.03;;;16.60;99.90;;;;;;5102539;28;20196;-68
2022/10/23 08:09:11;;;;;;;3.92;2.33;;;16.50;99.90;;;;;;5099886;28;20212;-68
2022/10/23 08:11:36;;;;;;;3.00;2.70;;;16.60;99.90;;;;;;5103188;28;20282;-67
2022/10/23 08:14:04;;;;;;;3.53;3.33;;;16.60;99.90;;;;;;5103028;28;20176;-67
2022/10/23 08:16:33;;;;;;;2.15;1.95;;;16.50;99.90;;;;;;5092854;28;20185;-67
2022/10/23 08:18:59;;;;;;;2.58;2.20;;;16.50;99.90;;;;;;5093609;28;20207;-66
2022/10/23 08:21:25;;;;;;;3.35;2.55;;;16.60;99.90;;;;;;5103232;28;20632;-68
2022/10/23 08:23:59;;;;;;;2.83;1.90;;;16.50;99.90;;;;;;5100744;28;20228;-68
2022/10/23 08:26:28;;;;;;;2.38;2.15;;;16.60;99.90;;;;;;5092581;28;20225;-67
2022/10/23 08:28:53;;;;;;;2.40;2.20;;;16.60;99.90;;;;;;5093997;28;20196;-67
2022/10/23 08:31:21;;;;;;;2.85;2.60;;;16.70;99.90;;;;;;5106050;28;20180;-67
2022/10/23 08:33:47;;;;;;;3.35;2.50;;;16.60;99.90;;;;;;5094220;28;20195;-66
2022/10/23 08:36:19;;;;;;;3.17;2.25;;;16.60;99.90;;;;;;5096688;28;20188;-66
2022/10/23 08:38:45;;;;;;;2.75;2.55;;;16.70;99.90;;;;;;5103761;28;20237;-66
2022/10/23 08:41:47;;;;;;;4.70;2.83;;;16.80;99.90;;;;;;5095026;28;20180;-67
2022/10/23 08:44:23;;;;;;;3.10;2.80;;;16.90;99.90;;;;;;5105754;27;20191;-66
2022/10/23 08:47:13;;;;;;;3.78;2.35;;;16.80;99.90;;;;;;5115248;27;20180;-67
2022/10/23 08:50:01;;;;;;;3.63;2.17;;;16.90;99.90;;;;;;5093236;28;20204;-67
2022/10/23 08:52:51;;;;;;;3.10;2.45;;;17.00;99.90;;;;;;5096723;28;20176;-68
2022/10/23 08:55:26;;;;;;;3.20;2.90;;;17.10;99.90;;;;;;5093277;28;20177;-67
2022/10/23 08:58:22;;;;;;;8.95;4.18;;;17.10;99.90;;;;;;5096535;28;20195;-67
2022/10/23 09:00:49;;;;;;;7.30;3.17;;;17.20;99.90;;;;;;5093705;28;20164;-67
2022/10/23 09:03:15;;;;;;;5.40;3.22;;;17.10;99.90;;;;;;5098173;28;20206;-66
2022/10/23 09:06:02;;;;;;;2.55;2.30;;;17.10;99.90;;;;;;5093210;28;20273;-67
2022/10/23 09:08:33;;;;;;;2.83;2.50;;;17.00;99.90;;;;;;5092763;28;20172;-67
2022/10/23 09:11:11;;;;;;;6.47;3.50;;;17.10;99.90;;;;;;5094688;28;20290;-67
2022/10/23 09:13:42;;;;;;;5.68;2.90;;;17.20;99.90;;;;;;5105512;28;20222;-67
2022/10/23 09:16:33;;;;;;;4.13;2.90;;;17.20;99.90;;;;;;5103461;28;20185;-66
2022/10/23 09:18:58;;;;;;;2.92;2.42;;;17.40;99.90;;;;;;5092842;28;20553;-67
2022/10/23 09:21:27;;;;;;;3.22;2.42;;;17.40;99.90;;;;;;5094875;28;20195;-67
2022/10/23 09:23:52;;;;;;;2.53;2.20;;;17.60;99.90;;;;;;5099445;28;20169;-67
2022/10/23 09:26:18;;;;;;;4.85;2.63;;;17.60;99.90;;;;;;5093927;28;20176;-66
2022/10/23 09:28:49;;;;;;;3.25;2.28;;;17.60;99.90;;;;;;5096234;28;20180;-68
2022/10/23 09:31:17;;;;;;;5.35;3.63;;;17.60;99.90;;;;;;5093637;28;20515;-66
2022/10/23 09:33:54;;;;;;;3.35;2.28;;;17.70;99.90;;;;;;5094523;28;20293;-66
2022/10/23 09:36:23;;;;;;;2.45;2.25;;;17.80;99.90;;;;;;5092867;28;20212;-66
2022/10/23 09:38:51;;;;;;;4.40;2.40;;;18.00;99.90;;;;;;5093958;28;20543;-68
2022/10/23 09:41:27;;;;;;;3.72;2.40;;;18.10;99.90;;;;;;5094242;28;20184;-68
2022/10/23 09:44:19;;;;;;;2.53;2.33;;;18.10;99.90;;;;;;5092924;28;20168;-67
2022/10/23 09:46:47;;;;;;;9.38;4.85;;;18.20;99.90;;;;;;5093591;28;20184;-68
2022/10/23 09:49:24;;;;;;;6.38;3.38;;;18.10;99.90;;;;;;5092720;28;20188;-69
2022/10/23 09:52:09;;;;;;;3.63;2.42;;;18.20;99.90;;;;;;5093233;28;20203;-68
2022/10/23 09:54:47;;;;;;;5.68;2.47;;;18.40;99.90;;;;;;5100375;28;20176;-68
2022/10/23 09:57:34;;;;;;;2.78;2.45;;;18.50;99.90;;;;;;5103853;28;20207;-67
2022/10/23 10:00:15;;;;;;;3.50;2.83;;;18.30;99.90;;;;;;5097004;28;20267;-66
2022/10/23 10:02:55;;;;;;;4.65;2.70;;;18.40;99.90;;;;;;5098374;28;20549;-66
2022/10/23 10:05:25;;;;;;;3.83;2.72;;;18.30;99.90;;;;;;5096346;28;20187;-65
2022/10/23 10:08:24;;;;;;;2.88;2.35;;;18.30;99.90;;;;;;5101605;28;20267;-69
2022/10/23 10:11:09;;;;;;;3.17;2.28;;;18.50;99.90;;;;;;5096455;27;20196;-67
2022/10/23 10:13:43;;;;;;;2.50;1.98;;;18.80;99.90;;;;;;5106873;28;20176;-66
2022/10/23 10:16:28;;;;;;;3.78;2.53;;;19.00;99.90;;;;;;5112607;28;20207;-66
2022/10/23 10:18:57;;;;;;;3.10;2.65;;;19.10;99.90;;;;;;5103889;28;20258;-66
2022/10/23 10:21:52;;;;;;;3.53;2.05;;;19.00;99.90;;;;;;5102264;28;20258;-67
2022/10/23 10:24:29;;;;;;;2.92;2.25;;;19.00;99.90;;;;;;5121886;27;20248;-66
2022/10/23 10:27:13;;;;;;;3.85;2.30;;;19.30;99.90;;;;;;5124005;27;20163;-67
2022/10/23 10:30:09;;;;;;;3.67;2.15;;;19.30;99.90;;;;;;5099913;28;20196;-68
2022/10/23 10:32:46;;;;;;;6.80;3.00;;;19.60;99.90;;;;;;5091703;28;20188;-68
2022/10/23 10:35:15;;;;;;;4.82;3.10;;;19.70;99.90;;;;;;5098054;28;20229;-67
2022/10/23 10:38:03;;;;;;;3.30;2.83;;;19.70;99.90;;;;;;5102794;28;20205;-64
2022/10/23 10:40:37;;;;;;;5.60;2.30;;;19.80;99.90;;;;;;5077495;28;20200;-69
2022/10/23 10:43:22;;;;;;;3.72;2.42;;;19.70;99.90;;;;;;5108254;28;20636;-68
2022/10/23 10:46:08;;;;;;;4.22;2.47;;;19.80;99.90;;;;;;5122458;27;20259;-69
2022/10/23 10:49:05;;;;;;;5.22;2.45;;;20.00;99.90;;;;;;5095964;28;20169;-66
2022/10/23 10:51:41;;;;;;;3.50;2.42;;;20.20;99.90;;;;;;5100619;28;21480;-67
2022/10/23 10:54:46;;;;;;;2.75;2.40;;;20.10;99.90;;;;;;5102149;28;20176;-71
2022/10/23 10:57:41;;;;;;;4.25;3.17;;;20.00;99.90;;;;;;5088037;28;20184;-66
2022/10/23 11:00:17;;;;;;;6.88;2.22;;;20.10;99.90;;;;;;5095335;28;20208;-68
2022/10/23 11:02:59;;;;;;;3.15;2.85;;;20.20;99.90;;;;;;5095644;28;20164;-64
2022/10/23 11:05:37;;;;;;;2.70;2.30;;;20.40;99.90;;;;;;5102574;28;20621;-68
2022/10/23 11:08:34;;;;;;;2.88;2.55;;;20.40;99.90;;;;;;5095779;28;20333;-66
2022/10/23 11:11:23;;;;;;;5.20;3.25;;;20.50;99.90;;;;;;5098612;28;20578;-69
2022/10/23 11:13:52;;;;;;;2.35;2.15;;;20.40;99.90;;;;;;5099472;28;20191;-67
2022/10/23 11:16:26;;;;;;;5.50;3.60;;;20.30;99.90;;;;;;5110660;28;20172;-67
2022/10/23 11:19:11;;;;;;;3.30;2.15;;;20.30;99.90;;;;;;5105983;27;20210;-66
2022/10/23 11:21:50;;;;;;;5.32;2.58;;;20.40;99.90;;;;;;5104198;28;20263;-68
2022/10/23 11:24:19;;;;;;;4.20;2.30;;;20.40;99.90;;;;;;5111271;28;20583;-64
2022/10/23 11:27:03;;;;;;;4.45;2.53;;;20.40;99.90;;;;;;5096799;28;20180;-65
2022/10/23 11:29:48;;;;;;;2.42;2.22;;;20.50;99.90;;;;;;5097875;28;20185;-64
2022/10/23 11:32:16;;;;;;;2.80;2.60;;;20.50;99.90;;;;;;5097229;28;20251;-65
2022/10/23 11:34:50;;;;;;;3.38;2.28;;;20.50;99.90;;;;;;5101072;28;20524;-65
2022/10/23 11:37:18;;;;;;;2.95;2.65;;;20.50;99.90;;;;;;5100970;28;20187;-65
2022/10/23 11:39:57;;;;;;;5.95;2.58;;;20.40;99.90;;;;;;5113286;28;20179;-64
2022/10/23 11:42:32;;;;;;;4.03;2.72;;;20.40;99.90;;;;;;5107798;28;20256;-68
2022/10/23 11:44:57;;;;;;;3.53;2.63;;;20.50;99.90;;;;;;5107873;28;20173;-69
2022/10/23 11:47:38;;;;;;;5.28;3.58;;;20.60;99.90;;;;;;5106338;28;20312;-65
2022/10/23 11:50:06;;;;;;;4.60;2.30;;;20.70;99.90;;;;;;5095636;28;20204;-69
2022/10/23 11:52:34;;;;;;;3.80;2.13;;;20.70;99.90;;;;;;5096927;28;20225;-66
2022/10/23 11:55:15;;;;;;;2.55;1.70;;;20.70;99.90;;;;;;5096466;28;20168;-69
2022/10/23 11:57:42;;;;;;;7.78;2.58;;;20.90;99.90;;;;;;5099848;28;20204;-67
2022/10/23 12:00:20;;;;;;;3.22;2.35;;;21.00;99.90;;;;;;5095976;28;20168;-65
2022/10/23 12:02:51;;;;;;;3.22;2.55;;;20.90;99.90;;;;;;5104278;28;20565;-66
2022/10/23 12:05:33;;;;;;;3.50;2.10;;;20.90;99.90;;;;;;5099134;28;20172;-65
2022/10/23 12:08:01;;;;;;;4.75;2.53;;;20.90;99.90;;;;;;5107146;28;20259;-65
2022/10/23 12:10:45;;;;;;;5.03;2.65;;;20.90;99.90;;;;;;5095576;28;20227;-65
2022/10/23 12:13:36;;;;;;;5.60;3.35;;;20.80;99.90;;;;;;5113798;27;20242;-65
2022/10/23 12:16:03;;;;;;;3.92;2.10;;;21.00;99.90;;;;;;5099487;28;20179;-64
2022/10/23 12:18:30;;;;;;;2.72;1.75;;;21.20;99.90;;;;;;5102529;28;20308;-64
2022/10/23 12:20:57;;;;;;;2.10;2.00;;;21.40;99.90;;;;;;5096094;28;20173;-65
2022/10/23 12:23:43;;;;;;;2.80;2.10;;;21.60;99.90;;;;;;5096770;28;20627;-65
2022/10/23 12:26:23;;;;;;;3.15;1.92;;;21.60;99.90;;;;;;5096607;28;20176;-65
2022/10/23 12:29:39;;;;;;;2.95;2.50;;;21.50;99.90;;;;;;5100239;28;20179;-65
2022/10/23 12:32:56;;;;;;;2.28;2.05;;;21.40;99.90;;;;;;5049662;28;20178;-64
2022/10/23 12:35:47;;;;;;;3.33;1.75;;;21.30;99.90;;;;;;5065600;28;20188;-64
2022/10/23 12:38:25;;;;;;;3.95;1.75;;;21.30;99.90;;;;;;5103871;28;20231;-65
2022/10/23 12:40:54;;;;;;;2.53;2.20;;;21.40;99.90;;;;;;5092563;28;20176;-63
2022/10/23 12:43:33;;;;;;;3.63;2.20;;;21.40;99.90;;;;;;5093840;28;20188;-64
2022/10/23 12:46:30;;;;;;;2.25;1.90;;;21.40;99.90;;;;;;5093958;28;20168;-64
2022/10/23 12:48:58;;;;;;;2.63;2.30;;;21.50;99.90;;;;;;5072856;28;20200;-65
2022/10/23 12:51:29;;;;;;;3.95;2.50;;;21.60;99.90;;;;;;5094319;28;20205;-65
2022/10/23 12:53:55;;;;;;;2.65;1.75;;;21.70;99.90;;;;;;5107198;28;20176;-65
2022/10/23 12:56:21;;;;;;;1.90;1.77;;;21.90;99.90;;;;;;5092176;28;20176;-65
2022/10/23 12:58:52;;;;;;;4.70;2.25;;;21.90;99.90;;;;;;5099743;28;20304;-66
2022/10/23 13:01:30;;;;;;;3.80;1.80;;;21.80;99.90;;;;;;5106938;28;20180;-64
2022/10/23 13:04:32;;;;;;;2.70;2.30;;;21.60;99.90;;;;;;5093071;28;20175;-64
2022/10/23 13:07:00;;;;;;;2.17;1.85;;;21.60;99.90;;;;;;5107394;28;20183;-64
2022/10/23 13:09:37;;;;;;;2.58;1.95;;;21.70;99.90;;;;;;5102647;28;20210;-65
2022/10/23 13:12:06;;;;;;;2.97;2.70;;;21.80;99.90;;;;;;5098276;28;20633;-64